Time;durP1;ratioP1;P1;durP2;ratioP2;P2;SDS_P1;SDS_P2;PMS_P1;PMS_P2;Temp;Humidity;BMP_temperature;BMP_pressure;BME280_temperature;BME280_humidity;BME280_pressure;Samples;Min_cycle;Max_cycle;Signal;HPM_P1;HPM_P2
2022/07/01 00:01:36;;;;;;;6.60;3.25;;;17.70;99.90;;;;;;5051372;28;20475;-53
2022/07/01 00:04:02;;;;;;;7.70;4.40;;;17.60;99.90;;;;;;5053506;28;20418;-57
2022/07/01 00:06:28;;;;;;;4.57;3.47;;;17.70;99.90;;;;;;5052682;28;20029;-52
2022/07/01 00:08:54;;;;;;;12.55;3.92;;;17.60;99.90;;;;;;5053076;28;20427;-53
2022/07/01 00:11:20;;;;;;;8.40;4.38;;;17.60;99.90;;;;;;5053748;28;20096;-56
2022/07/01 00:13:46;;;;;;;5.15;3.80;;;17.60;99.90;;;;;;5035960;28;20033;-56
2022/07/01 00:16:12;;;;;;;8.05;4.88;;;17.60;99.90;;;;;;5053514;28;20041;-53
2022/07/01 00:18:37;;;;;;;9.70;4.95;;;17.60;99.90;;;;;;5053484;28;20385;-54
2022/07/01 00:21:03;;;;;;;6.15;4.40;;;17.60;99.90;;;;;;5054144;28;20592;-55
2022/07/01 00:23:30;;;;;;;9.27;4.70;;;17.50;99.90;;;;;;5053599;28;20021;-55
2022/07/01 00:25:56;;;;;;;8.43;3.92;;;17.60;99.90;;;;;;5035262;28;20384;-53
2022/07/01 00:28:22;;;;;;;7.45;4.60;;;17.50;99.90;;;;;;5053310;28;20033;-56
2022/07/01 00:30:50;;;;;;;10.10;4.93;;;17.60;99.90;;;;;;5053455;28;20032;-56
2022/07/01 00:33:16;;;;;;;14.75;5.47;;;17.50;99.90;;;;;;5052554;28;20025;-56
2022/07/01 00:35:41;;;;;;;7.82;5.40;;;17.50;99.90;;;;;;5052855;28;20039;-56
2022/07/01 00:38:07;;;;;;;9.60;5.35;;;17.50;99.90;;;;;;5053363;28;20119;-54
2022/07/01 00:40:33;;;;;;;12.80;5.38;;;17.40;99.90;;;;;;5053374;28;20048;-54
2022/07/01 00:42:58;;;;;;;4.30;3.88;;;17.50;99.90;;;;;;5053398;28;20503;-56
2022/07/01 00:45:24;;;;;;;7.18;4.30;;;17.50;99.90;;;;;;5053225;28;20033;-55
2022/07/01 00:47:50;;;;;;;6.90;4.30;;;17.50;99.90;;;;;;5052733;28;20075;-57
2022/07/01 00:50:16;;;;;;;6.68;4.03;;;17.50;99.90;;;;;;5053498;28;20460;-55
2022/07/01 00:52:44;;;;;;;4.53;3.83;;;17.50;99.90;;;;;;5052900;28;20067;-54
2022/07/01 00:55:12;;;;;;;5.38;3.97;;;17.50;99.90;;;;;;5053457;28;20017;-52
2022/07/01 00:57:39;;;;;;;4.22;3.70;;;17.50;99.90;;;;;;5034900;28;20029;-56
2022/07/01 01:00:11;;;;;;;7.43;3.42;;;17.60;99.90;;;;;;5052776;28;20122;-57
2022/07/01 01:02:37;;;;;;;4.43;3.40;;;17.60;99.90;;;;;;5052528;28;20055;-56
2022/07/01 01:05:08;;;;;;;4.72;4.00;;;17.70;99.90;;;;;;5053148;28;20017;-57
2022/07/01 01:07:34;;;;;;;7.72;4.22;;;17.60;99.90;;;;;;5052905;28;20090;-54
2022/07/01 01:10:04;;;;;;;8.38;3.88;;;17.50;99.90;;;;;;5052330;28;20141;-57
2022/07/01 01:12:30;;;;;;;8.52;3.85;;;17.60;99.90;;;;;;5052754;28;20644;-56
2022/07/01 01:14:57;;;;;;;5.82;3.95;;;17.60;99.90;;;;;;5052752;28;20041;-54
2022/07/01 01:17:23;;;;;;;4.38;3.40;;;17.60;99.90;;;;;;5051308;28;20116;-56
2022/07/01 01:19:51;;;;;;;4.07;2.90;;;17.60;99.90;;;;;;5051794;28;20036;-53
2022/07/01 01:22:18;;;;;;;3.20;2.90;;;17.70;99.90;;;;;;5051287;28;20043;-56
2022/07/01 01:24:45;;;;;;;3.15;2.63;;;17.70;99.90;;;;;;5050832;28;20383;-56
2022/07/01 01:27:12;;;;;;;6.55;2.80;;;17.70;99.90;;;;;;5051148;28;20078;-54
2022/07/01 01:29:38;;;;;;;6.30;2.80;;;17.80;99.90;;;;;;5050839;28;20036;-56
2022/07/01 01:32:05;;;;;;;2.80;2.45;;;17.80;99.90;;;;;;5050763;28;20036;-54
2022/07/01 01:34:32;;;;;;;13.15;3.17;;;17.80;99.90;;;;;;5051204;28;20055;-54
2022/07/01 01:36:58;;;;;;;4.90;2.90;;;17.70;99.90;;;;;;5032841;28;20017;-54
2022/07/01 01:39:24;;;;;;;5.50;3.97;;;17.70;99.90;;;;;;5050487;28;20032;-55
2022/07/01 01:41:50;;;;;;;7.03;5.38;;;17.60;99.90;;;;;;5051748;28;20181;-55
2022/07/01 01:44:16;;;;;;;7.55;3.55;;;17.60;99.90;;;;;;5052827;28;20055;-54
2022/07/01 01:46:47;;;;;;;14.80;3.28;;;17.60;99.90;;;;;;5051814;28;20112;-57
2022/07/01 01:49:13;;;;;;;9.63;2.90;;;17.60;99.90;;;;;;5052395;28;20460;-55
2022/07/01 01:51:39;;;;;;;5.40;2.67;;;17.70;99.90;;;;;;5051879;28;20078;-53
2022/07/01 01:54:05;;;;;;;5.78;2.63;;;17.70;99.90;;;;;;5051826;28;20062;-51
2022/07/01 01:56:31;;;;;;;4.70;2.30;;;17.60;99.90;;;;;;5053113;28;20025;-52
2022/07/01 01:58:58;;;;;;;8.07;2.53;;;17.60;99.90;;;;;;5052130;28;20035;-52
2022/07/01 02:01:24;;;;;;;3.67;2.22;;;17.50;99.90;;;;;;5033901;28;20126;-55
2022/07/01 02:03:51;;;;;;;6.55;2.70;;;17.50;99.90;;;;;;5032299;28;20121;-51
2022/07/01 02:06:18;;;;;;;3.40;2.08;;;17.50;99.90;;;;;;5050290;28;20039;-53
2022/07/01 02:08:44;;;;;;;6.00;2.40;;;17.50;99.90;;;;;;5050019;28;20035;-53
2022/07/01 02:11:10;;;;;;;3.00;2.20;;;17.50;99.90;;;;;;5050592;28;20074;-56
2022/07/01 02:13:37;;;;;;;6.60;2.13;;;17.50;99.90;;;;;;5050497;28;20029;-55
2022/07/01 02:16:04;;;;;;;5.93;3.00;;;17.60;99.90;;;;;;5050481;28;20045;-54
2022/07/01 02:18:30;;;;;;;2.65;2.28;;;17.50;99.90;;;;;;5049516;28;20025;-55
2022/07/01 02:20:56;;;;;;;2.47;2.28;;;17.50;99.90;;;;;;5050603;28;20028;-52
2022/07/01 02:23:22;;;;;;;7.22;2.63;;;17.50;99.90;;;;;;5050523;28;20480;-56
2022/07/01 02:25:48;;;;;;;13.05;3.65;;;17.60;99.90;;;;;;5050763;28;20056;-55
2022/07/01 02:28:14;;;;;;;4.78;2.75;;;17.60;99.90;;;;;;5050981;28;20393;-53
2022/07/01 02:30:40;;;;;;;4.05;2.90;;;17.50;99.90;;;;;;5032870;28;20028;-53
2022/07/01 02:33:06;;;;;;;7.18;2.95;;;17.50;99.90;;;;;;5051442;28;20036;-50
2022/07/01 02:35:37;;;;;;;9.63;3.47;;;17.50;99.90;;;;;;5050202;28;20111;-51
2022/07/01 02:38:03;;;;;;;4.13;3.10;;;17.50;99.90;;;;;;5050067;28;20029;-52
2022/07/01 02:40:29;;;;;;;8.15;4.22;;;17.50;99.90;;;;;;5049996;28;20033;-55
2022/07/01 02:42:55;;;;;;;6.03;3.65;;;17.50;99.90;;;;;;5032281;28;20373;-53
2022/07/01 02:45:21;;;;;;;5.75;3.72;;;17.60;99.90;;;;;;5050136;28;20375;-53
2022/07/01 02:47:48;;;;;;;7.30;4.60;;;17.60;99.90;;;;;;5050232;28;20056;-55
2022/07/01 02:50:14;;;;;;;7.30;4.20;;;17.60;99.90;;;;;;5050406;28;20021;-53
2022/07/01 02:52:41;;;;;;;8.68;4.25;;;17.70;99.90;;;;;;5049446;28;20050;-55
2022/07/01 02:55:12;;;;;;;6.88;4.55;;;17.80;99.90;;;;;;5049471;28;20021;-53
2022/07/01 02:57:38;;;;;;;10.63;4.90;;;17.80;99.90;;;;;;5049868;28;20052;-53
2022/07/01 03:00:07;;;;;;;12.18;5.25;;;17.90;99.90;;;;;;5032376;28;20029;-54
2022/07/01 03:02:33;;;;;;;10.23;5.78;;;17.90;99.90;;;;;;5050458;28;20468;-53
2022/07/01 03:04:59;;;;;;;6.97;5.22;;;18.00;99.90;;;;;;5049878;28;20039;-56
2022/07/01 03:07:25;;;;;;;13.45;5.90;;;18.10;99.90;;;;;;5049681;28;20031;-55
2022/07/01 03:09:52;;;;;;;9.25;5.50;;;18.20;99.90;;;;;;5050100;28;20435;-54
2022/07/01 03:12:34;;;;;;;13.23;6.00;;;18.20;99.90;;;;;;5049717;28;20029;-56
2022/07/01 03:15:15;;;;;;;13.95;6.88;;;18.30;99.90;;;;;;5050119;28;20055;-52
2022/07/01 03:17:45;;;;;;;10.05;6.43;;;18.30;99.90;;;;;;5050136;28;20321;-51
2022/07/01 03:20:17;;;;;;;8.13;6.10;;;18.50;99.90;;;;;;5050491;28;20468;-54
2022/07/01 03:22:44;;;;;;;11.52;5.85;;;18.50;99.90;;;;;;5049399;28;20063;-52
2022/07/01 03:25:10;;;;;;;13.82;6.00;;;18.60;99.90;;;;;;5032336;28;20555;-53
2022/07/01 03:27:36;;;;;;;9.80;6.25;;;18.50;99.90;;;;;;5050263;28;20033;-55
2022/07/01 03:30:06;;;;;;;11.73;6.57;;;18.60;99.90;;;;;;5032330;28;20487;-57
2022/07/01 03:32:33;;;;;;;11.77;6.88;;;18.60;99.90;;;;;;5031500;28;20041;-53
2022/07/01 03:34:59;;;;;;;12.23;7.10;;;18.60;99.90;;;;;;5049666;28;20035;-55
2022/07/01 03:37:25;;;;;;;18.40;6.97;;;18.60;99.90;;;;;;5049433;28;20040;-55
2022/07/01 03:39:51;;;;;;;12.57;6.70;;;18.60;99.90;;;;;;5049346;28;20056;-56
2022/07/01 03:42:17;;;;;;;12.02;6.72;;;18.60;99.90;;;;;;5049637;28;20040;-55
2022/07/01 03:44:44;;;;;;;8.50;6.68;;;18.60;99.90;;;;;;5049771;28;20021;-55
2022/07/01 03:47:10;;;;;;;8.35;6.43;;;18.60;99.90;;;;;;5049740;28;20433;-54
2022/07/01 03:49:36;;;;;;;14.02;7.18;;;18.60;99.90;;;;;;5049689;28;20017;-55
2022/07/01 03:52:06;;;;;;;12.98;6.53;;;18.70;99.90;;;;;;5049207;28;20523;-54
2022/07/01 03:54:37;;;;;;;7.05;5.18;;;18.70;99.90;;;;;;5050346;28;20017;-53
2022/07/01 03:57:05;;;;;;;9.70;5.03;;;18.70;99.90;;;;;;5049667;28;20108;-54
2022/07/01 03:59:35;;;;;;;13.73;5.63;;;18.70;99.90;;;;;;5049245;28;20029;-54
2022/07/01 04:02:02;;;;;;;10.82;5.22;;;18.70;99.90;;;;;;5031409;28;20025;-56
2022/07/01 04:04:28;;;;;;;7.88;4.82;;;18.80;99.90;;;;;;5048872;28;20464;-55
2022/07/01 04:06:55;;;;;;;6.80;4.45;;;18.70;99.90;;;;;;5049855;28;20029;-54
2022/07/01 04:09:22;;;;;;;6.90;4.10;;;18.70;99.90;;;;;;5052735;28;20562;-53
2022/07/01 04:11:49;;;;;;;7.05;3.58;;;18.70;99.90;;;;;;5055394;28;20407;-54
2022/07/01 04:14:15;;;;;;;5.68;3.42;;;18.70;99.90;;;;;;5054442;28;20045;-55
2022/07/01 04:16:42;;;;;;;6.15;3.10;;;18.70;99.90;;;;;;5052929;28;20037;-54
2022/07/01 04:19:09;;;;;;;4.20;2.80;;;18.60;99.90;;;;;;5052384;28;20057;-54
2022/07/01 04:24:19;;;;;;;7.88;3.63;;;18.60;99.90;;;;;;5032783;28;20277;-53
2022/07/01 04:26:45;;;;;;;5.95;2.90;;;18.60;99.90;;;;;;5042736;28;20017;-55
2022/07/01 04:29:11;;;;;;;8.48;3.90;;;18.60;99.90;;;;;;5051850;28;20032;-54
2022/07/01 04:31:38;;;;;;;6.78;3.50;;;18.70;99.90;;;;;;5052151;28;20025;-55
2022/07/01 04:34:05;;;;;;;8.73;3.90;;;18.70;99.90;;;;;;5052912;28;20557;-56
2022/07/01 04:36:31;;;;;;;5.00;3.17;;;18.70;99.90;;;;;;5052336;28;20110;-51
2022/07/01 04:38:57;;;;;;;4.57;3.10;;;18.80;99.90;;;;;;5052865;28;20053;-54
2022/07/01 04:44:13;;;;;;;11.63;3.47;;;18.90;99.90;;;;;;5052160;28;20048;-55
2022/07/01 04:46:38;;;;;;;10.27;3.20;;;18.90;99.90;;;;;;5052450;28;20025;-51
2022/07/01 04:49:04;;;;;;;10.27;3.50;;;18.90;99.90;;;;;;5034331;28;20028;-52
2022/07/01 04:51:30;;;;;;;12.77;2.90;;;18.90;99.90;;;;;;5051790;28;20116;-57
2022/07/01 04:53:56;;;;;;;4.88;3.08;;;19.00;99.90;;;;;;5052320;28;20045;-54
2022/07/01 04:56:22;;;;;;;6.47;3.63;;;19.00;99.90;;;;;;5052651;28;20107;-55
2022/07/01 04:58:48;;;;;;;6.47;3.13;;;19.00;99.90;;;;;;5033504;28;20055;-55
2022/07/01 05:01:14;;;;;;;4.20;3.03;;;19.10;99.90;;;;;;5053373;28;20021;-55
2022/07/01 05:03:39;;;;;;;6.35;1.95;;;19.00;99.90;;;;;;5051881;28;20108;-55
2022/07/01 05:06:05;;;;;;;2.50;2.30;;;19.10;99.90;;;;;;5050820;28;20021;-56
2022/07/01 05:08:31;;;;;;;13.18;2.80;;;19.10;99.90;;;;;;5048561;28;20045;-52
2022/07/01 05:10:57;;;;;;;3.92;2.50;;;19.10;99.90;;;;;;5048246;28;20296;-56
2022/07/01 05:13:23;;;;;;;5.13;2.25;;;19.10;99.90;;;;;;5050311;28;20120;-52
2022/07/01 05:15:49;;;;;;;4.22;2.33;;;19.20;99.90;;;;;;5048255;28;20431;-57
2022/07/01 05:23:43;;;;;;;8.32;2.15;;;19.30;99.90;;;;;;5048569;28;20122;-55
2022/07/01 05:26:08;;;;;;;10.02;2.03;;;19.30;99.90;;;;;;5048780;28;20025;-55
2022/07/01 05:28:34;;;;;;;5.93;2.20;;;19.30;99.90;;;;;;5050017;28;20032;-54
2022/07/01 05:30:59;;;;;;;6.03;2.33;;;19.30;99.90;;;;;;5051218;28;20025;-52
2022/07/01 05:33:26;;;;;;;4.63;2.05;;;19.30;99.90;;;;;;5050905;28;20063;-57
2022/07/01 05:35:53;;;;;;;3.08;2.30;;;19.50;99.90;;;;;;5050814;28;20029;-55
2022/07/01 05:38:18;;;;;;;1.70;1.60;;;19.50;99.90;;;;;;5051005;28;20044;-52
2022/07/01 05:40:44;;;;;;;6.13;2.35;;;19.60;99.90;;;;;;5051666;28;20029;-56
2022/07/01 05:43:10;;;;;;;9.85;1.80;;;19.70;99.90;;;;;;5050718;28;20249;-56
2022/07/01 05:45:36;;;;;;;2.15;1.88;;;19.70;99.90;;;;;;5050830;28;20029;-54
2022/07/01 05:48:01;;;;;;;4.38;2.35;;;19.90;99.90;;;;;;5051091;28;20022;-57
2022/07/01 05:50:27;;;;;;;5.10;1.67;;;19.90;99.90;;;;;;5051100;28;20025;-56
2022/07/01 05:52:53;;;;;;;3.05;1.90;;;20.10;99.90;;;;;;5051311;28;20039;-57
2022/07/01 05:55:18;;;;;;;7.03;2.10;;;20.30;99.90;;;;;;5051360;28;20025;-54
2022/07/01 05:57:44;;;;;;;3.05;1.65;;;20.40;99.90;;;;;;5051309;28;20039;-53
2022/07/01 06:00:10;;;;;;;4.15;1.65;;;20.30;99.90;;;;;;5051273;28;20116;-54
2022/07/01 06:02:36;;;;;;;5.55;1.40;;;20.40;99.90;;;;;;5050484;28;20033;-52
2022/07/01 06:05:02;;;;;;;3.05;1.50;;;20.10;99.90;;;;;;5050580;28;20036;-56
2022/07/01 06:07:28;;;;;;;4.45;1.02;;;20.30;99.90;;;;;;5032735;28;20734;-54
2022/07/01 06:09:55;;;;;;;1.80;1.40;;;20.30;99.90;;;;;;5050862;28;20033;-56
2022/07/01 06:12:21;;;;;;;1.30;1.20;;;20.40;99.90;;;;;;5050551;28;20040;-56
2022/07/01 06:14:47;;;;;;;2.65;1.00;;;20.50;99.90;;;;;;5050819;28;20060;-53
2022/07/01 06:17:13;;;;;;;5.78;1.50;;;20.40;99.90;;;;;;5050819;28;20452;-57
2022/07/01 06:19:39;;;;;;;4.97;1.73;;;20.50;99.90;;;;;;5032767;28;20078;-55
2022/07/01 06:22:05;;;;;;;2.03;1.20;;;20.60;99.90;;;;;;5050461;28;20064;-56
2022/07/01 06:24:31;;;;;;;2.50;1.50;;;20.30;99.90;;;;;;5050578;28;20056;-56
2022/07/01 06:26:57;;;;;;;2.78;1.23;;;20.40;99.90;;;;;;5050688;28;20436;-57
2022/07/01 06:29:22;;;;;;;4.93;1.48;;;20.50;99.90;;;;;;5050370;28;20025;-56
2022/07/01 06:31:48;;;;;;;1.30;1.20;;;20.60;99.90;;;;;;5050285;28;20317;-56
2022/07/01 06:34:14;;;;;;;3.30;1.20;;;20.90;99.90;;;;;;5050087;28;20472;-54
2022/07/01 06:36:39;;;;;;;1.35;1.10;;;21.10;99.90;;;;;;5050345;28;20075;-56
2022/07/01 06:39:05;;;;;;;2.08;1.10;;;21.30;99.90;;;;;;5049811;28;20029;-57
2022/07/01 06:41:31;;;;;;;4.00;1.20;;;21.10;99.90;;;;;;5050309;28;20119;-55
2022/07/01 06:44:01;;;;;;;3.83;1.00;;;21.10;99.90;;;;;;5050244;28;20100;-56
2022/07/01 06:46:33;;;;;;;3.67;0.82;;;21.30;99.90;;;;;;5050346;28;20025;-54
2022/07/01 06:48:59;;;;;;;2.22;1.13;;;21.50;99.90;;;;;;5032181;28;20013;-56
2022/07/01 06:51:25;;;;;;;2.13;1.23;;;21.60;99.90;;;;;;5049853;28;20032;-57
2022/07/01 06:53:51;;;;;;;2.88;1.73;;;21.70;99.90;;;;;;5050170;28;20484;-53
2022/07/01 06:56:17;;;;;;;4.80;1.73;;;21.60;99.90;;;;;;5049990;28;20350;-55
2022/07/01 06:58:43;;;;;;;1.00;1.00;;;21.60;99.90;;;;;;5050199;28;20424;-56
2022/07/01 07:01:10;;;;;;;3.08;0.85;;;21.70;99.90;;;;;;5050283;28;20396;-56
2022/07/01 07:03:36;;;;;;;1.80;1.13;;;21.80;99.90;;;;;;5049773;28;20032;-56
2022/07/01 07:06:03;;;;;;;6.07;1.20;;;21.70;99.90;;;;;;5050231;28;20036;-55
2022/07/01 07:08:31;;;;;;;4.95;1.33;;;21.60;99.90;;;;;;5032151;28;20021;-56
2022/07/01 07:10:58;;;;;;;3.30;1.45;;;21.40;99.90;;;;;;5032331;28;20036;-56
2022/07/01 07:13:24;;;;;;;4.38;1.00;;;21.50;99.90;;;;;;5050061;28;20029;-57
2022/07/01 07:15:50;;;;;;;1.20;1.00;;;21.40;99.90;;;;;;5049801;28;20051;-55
2022/07/01 07:18:16;;;;;;;1.08;0.90;;;21.70;99.90;;;;;;5050128;28;20484;-54
2022/07/01 07:20:42;;;;;;;3.22;0.98;;;21.90;99.90;;;;;;5050103;28;20112;-56
2022/07/01 07:23:08;;;;;;;4.38;1.35;;;21.90;99.90;;;;;;5049646;28;20068;-55
2022/07/01 07:25:34;;;;;;;4.05;1.25;;;21.90;99.90;;;;;;5049982;28;20167;-55
2022/07/01 07:28:00;;;;;;;1.90;1.13;;;22.00;99.90;;;;;;5049838;28;20453;-56
2022/07/01 07:30:26;;;;;;;1.45;0.98;;;21.90;99.90;;;;;;5049721;28;20041;-55
2022/07/01 07:32:51;;;;;;;1.38;1.08;;;22.00;99.90;;;;;;5049379;28;20029;-55
2022/07/01 07:35:17;;;;;;;3.92;1.00;;;22.10;99.90;;;;;;5049673;28;20117;-58
2022/07/01 07:37:45;;;;;;;1.05;0.95;;;21.90;99.90;;;;;;5049632;28;20071;-55
2022/07/01 07:40:13;;;;;;;1.13;0.80;;;22.00;99.90;;;;;;5032345;28;20031;-57
2022/07/01 07:42:40;;;;;;;1.50;1.10;;;22.00;99.90;;;;;;5034378;28;20025;-56
2022/07/01 07:45:07;;;;;;;1.20;1.10;;;22.00;99.90;;;;;;5053692;28;20033;-55
2022/07/01 07:47:34;;;;;;;1.65;1.20;;;21.90;99.90;;;;;;5053052;28;20112;-53
2022/07/01 07:50:00;;;;;;;1.90;1.05;;;21.80;99.90;;;;;;5053332;28;20036;-52
2022/07/01 07:52:29;;;;;;;1.25;1.15;;;21.60;99.90;;;;;;5053304;28;20067;-56
2022/07/01 07:54:55;;;;;;;1.90;1.17;;;21.70;99.90;;;;;;5053664;28;20641;-56
2022/07/01 07:57:21;;;;;;;0.95;0.82;;;22.10;99.90;;;;;;5053309;28;20071;-53
2022/07/01 07:59:47;;;;;;;3.10;1.10;;;22.20;99.90;;;;;;5053554;28;20522;-54
2022/07/01 08:02:13;;;;;;;1.83;1.30;;;22.30;99.90;;;;;;5052643;28;20079;-55
2022/07/01 08:04:39;;;;;;;1.60;0.80;;;22.00;99.90;;;;;;5035465;28;20564;-56
2022/07/01 08:07:04;;;;;;;1.60;1.48;;;22.30;99.90;;;;;;5054054;28;20060;-58
2022/07/01 08:09:34;;;;;;;4.07;1.10;;;22.40;99.90;;;;;;5052757;28;20079;-55
2022/07/01 08:12:02;;;;;;;1.25;1.00;;;22.60;99.90;;;;;;5053144;28;20056;-54
2022/07/01 08:14:28;;;;;;;1.73;1.38;;;22.90;99.90;;;;;;5034928;28;20518;-57
2022/07/01 08:16:54;;;;;;;2.53;1.10;;;23.50;99.90;;;;;;5035219;28;20025;-53
2022/07/01 08:19:19;;;;;;;1.63;1.05;;;23.70;99.90;;;;;;5053214;28;20511;-57
2022/07/01 08:21:45;;;;;;;1.20;1.10;;;23.70;99.90;;;;;;5053213;28;20035;-56
2022/07/01 08:24:11;;;;;;;1.00;1.00;;;23.60;99.90;;;;;;5052681;28;20036;-56
2022/07/01 08:26:37;;;;;;;5.47;1.42;;;23.60;99.90;;;;;;5052672;28;20033;-56
2022/07/01 08:29:03;;;;;;;2.28;1.15;;;23.40;99.90;;;;;;5052748;28;20116;-53
2022/07/01 08:31:29;;;;;;;2.53;1.33;;;23.80;99.90;;;;;;5052580;28;20086;-57
2022/07/01 08:33:55;;;;;;;2.20;1.50;;;23.60;99.90;;;;;;5053369;28;20021;-54
2022/07/01 08:36:21;;;;;;;4.43;2.72;;;23.60;99.90;;;;;;5053363;28;20017;-56
2022/07/01 08:38:48;;;;;;;3.55;1.40;;;23.70;99.90;;;;;;5052325;28;20032;-57
2022/07/01 08:41:15;;;;;;;3.15;1.98;;;23.80;99.50;;;;;;5053279;28;20025;-57
2022/07/01 08:43:40;;;;;;;2.22;1.35;;;23.50;99.90;;;;;;5052966;28;20032;-57
2022/07/01 08:46:07;;;;;;;3.10;1.35;;;23.70;99.90;;;;;;5052101;28;20027;-57
2022/07/01 08:48:34;;;;;;;1.30;1.20;;;23.80;99.90;;;;;;5052231;28;20028;-57
2022/07/01 08:51:03;;;;;;;1.30;1.20;;;23.80;99.90;;;;;;5052459;28;20025;-55
2022/07/01 08:53:31;;;;;;;1.45;1.30;;;23.80;99.90;;;;;;5050854;28;20128;-56
2022/07/01 08:58:41;;;;;;;3.47;1.65;;;23.50;99.90;;;;;;5045514;28;20035;-53
2022/07/01 09:01:13;;;;;;;2.22;1.85;;;23.20;99.90;;;;;;5052636;28;20100;-56
2022/07/01 09:03:39;;;;;;;7.63;2.00;;;23.30;99.90;;;;;;5052391;28;20109;-55
2022/07/01 09:06:12;;;;;;;1.98;1.85;;;23.50;99.90;;;;;;5052320;28;20468;-55
2022/07/01 09:08:38;;;;;;;1.50;1.40;;;23.60;99.90;;;;;;5051747;28;20029;-57
2022/07/01 09:11:12;;;;;;;2.80;1.30;;;23.70;99.90;;;;;;5052307;28;20079;-55
2022/07/01 09:13:38;;;;;;;2.17;1.45;;;24.10;99.90;;;;;;5051515;28;20029;-58
2022/07/01 09:16:16;;;;;;;4.63;1.63;;;24.30;99.80;;;;;;5051533;28;20052;-56
2022/07/01 09:19:00;;;;;;;1.65;1.55;;;24.80;99.00;;;;;;5051898;28;20427;-57
2022/07/01 09:21:31;;;;;;;3.38;1.70;;;24.70;98.40;;;;;;5033869;28;20421;-55
2022/07/01 09:24:27;;;;;;;13.25;1.88;;;24.90;99.80;;;;;;5051696;28;20024;-57
2022/07/01 09:26:54;;;;;;;1.40;1.30;;;25.40;98.30;;;;;;5043126;28;20052;-55
2022/07/01 09:29:24;;;;;;;1.58;1.48;;;25.50;98.40;;;;;;5051387;28;20021;-56
2022/07/01 09:31:50;;;;;;;4.22;1.45;;;25.60;97.90;;;;;;5051601;28;20417;-56
2022/07/01 09:34:16;;;;;;;2.50;1.60;;;25.60;97.60;;;;;;5051552;28;20160;-58
2022/07/01 09:36:52;;;;;;;1.70;1.60;;;25.60;98.50;;;;;;5051386;28;20036;-55
2022/07/01 09:39:17;;;;;;;2.70;1.92;;;25.50;98.40;;;;;;5051335;28;20388;-57
2022/07/01 09:41:43;;;;;;;3.75;2.40;;;25.90;97.40;;;;;;5051267;28;20036;-58
2022/07/01 09:44:09;;;;;;;9.32;1.40;;;25.70;97.20;;;;;;5051402;28;20463;-57
2022/07/01 09:46:35;;;;;;;4.15;1.38;;;26.30;96.10;;;;;;5051228;28;20040;-57
2022/07/01 09:49:01;;;;;;;1.42;1.23;;;26.50;94.90;;;;;;5051437;28;20503;-55
2022/07/01 09:51:30;;;;;;;4.38;1.33;;;26.30;97.60;;;;;;5050764;28;20283;-55
2022/07/01 09:53:56;;;;;;;6.85;1.50;;;27.10;95.40;;;;;;5050876;28;20035;-57
2022/07/01 09:56:23;;;;;;;3.35;1.45;;;27.00;94.50;;;;;;5050817;28;20357;-57
2022/07/01 09:58:49;;;;;;;3.20;1.55;;;26.40;94.30;;;;;;5051257;28;20071;-56
2022/07/01 10:01:15;;;;;;;1.77;1.40;;;26.20;95.10;;;;;;5050939;28;20033;-58
2022/07/01 10:03:41;;;;;;;11.45;1.35;;;26.50;95.00;;;;;;5051347;28;20117;-58
2022/07/01 10:06:07;;;;;;;2.50;1.38;;;26.70;95.60;;;;;;5050412;28;20021;-55
2022/07/01 10:08:38;;;;;;;2.40;1.20;;;27.00;94.40;;;;;;5050517;28;20075;-58
2022/07/01 10:11:14;;;;;;;4.30;1.40;;;26.70;93.90;;;;;;5050764;28;20489;-57
2022/07/01 10:13:41;;;;;;;5.70;1.50;;;26.90;93.70;;;;;;5048314;28;20029;-58
2022/07/01 10:16:08;;;;;;;4.25;1.50;;;26.70;93.50;;;;;;5050795;28;20041;-56
2022/07/01 10:18:34;;;;;;;3.97;1.85;;;26.70;93.90;;;;;;5050603;28;20098;-58
2022/07/01 10:21:02;;;;;;;2.42;1.42;;;26.80;95.20;;;;;;5050898;28;20017;-58
2022/07/01 10:24:12;;;;;;;5.15;1.58;;;26.90;95.30;;;;;;5050512;28;20032;-57
2022/07/01 10:26:38;;;;;;;4.05;1.75;;;26.00;94.50;;;;;;5041478;28;20037;-58
2022/07/01 10:29:03;;;;;;;5.35;1.83;;;25.60;95.60;;;;;;5050688;28;20755;-57
2022/07/01 10:31:37;;;;;;;2.55;2.00;;;25.30;95.80;;;;;;5050168;28;20543;-57
2022/07/01 10:34:04;;;;;;;4.20;2.13;;;25.10;95.90;;;;;;5032478;28;20284;-53
2022/07/01 10:36:32;;;;;;;5.45;1.38;;;24.50;96.40;;;;;;5032498;28;20071;-57
2022/07/01 10:39:01;;;;;;;4.13;1.60;;;24.20;96.70;;;;;;5050355;28;20029;-57
2022/07/01 10:41:39;;;;;;;3.15;1.80;;;24.30;96.80;;;;;;5051211;28;20027;-54
2022/07/01 10:44:07;;;;;;;4.20;2.15;;;24.70;96.10;;;;;;5032329;28;20488;-57
2022/07/01 10:47:06;;;;;;;2.38;1.92;;;25.10;96.80;;;;;;5050381;28;20021;-58
2022/07/01 10:49:38;;;;;;;3.45;1.92;;;25.90;97.30;;;;;;5049912;28;20032;-57
2022/07/01 10:52:08;;;;;;;1.70;1.48;;;25.60;95.70;;;;;;5032808;28;20047;-57
2022/07/01 10:54:36;;;;;;;7.28;2.22;;;26.10;94.90;;;;;;5049763;28;20028;-56
2022/07/01 10:57:30;;;;;;;2.72;2.22;;;26.50;94.70;;;;;;5050223;28;20029;-58
2022/07/01 10:59:58;;;;;;;2.55;1.92;;;26.10;94.20;;;;;;5041807;28;20037;-55
2022/07/01 11:02:28;;;;;;;8.27;3.80;;;26.10;94.20;;;;;;5049595;28;20052;-58
2022/07/01 11:05:05;;;;;;;2.88;2.00;;;26.00;95.30;;;;;;5050521;28;20031;-55
2022/07/01 11:07:33;;;;;;;2.15;1.95;;;26.30;94.50;;;;;;5031980;28;20154;-54
2022/07/01 11:10:01;;;;;;;4.10;1.50;;;26.90;93.00;;;;;;5050194;28;20021;-58
2022/07/01 11:12:28;;;;;;;4.25;1.73;;;27.20;93.30;;;;;;5050064;28;20100;-56
2022/07/01 11:14:58;;;;;;;3.38;1.48;;;26.50;94.10;;;;;;5050115;28;20053;-55
2022/07/01 11:17:25;;;;;;;2.30;1.48;;;26.10;93.70;;;;;;5052023;28;20040;-57
2022/07/01 11:19:54;;;;;;;1.38;1.20;;;26.10;93.80;;;;;;5054391;28;20056;-57
2022/07/01 11:22:20;;;;;;;3.53;1.50;;;25.80;94.50;;;;;;5035727;28;20029;-55
2022/07/01 11:24:51;;;;;;;2.35;1.73;;;25.20;95.60;;;;;;5054710;28;20108;-57
2022/07/01 11:27:16;;;;;;;2.22;1.80;;;25.60;95.30;;;;;;5036330;28;20043;-54
2022/07/01 11:29:42;;;;;;;7.05;2.00;;;25.30;95.30;;;;;;5053585;28;20455;-57
2022/07/01 11:32:08;;;;;;;3.25;1.58;;;25.50;95.60;;;;;;5053839;28;20025;-56
2022/07/01 11:34:36;;;;;;;3.72;1.92;;;25.30;95.80;;;;;;5054202;28;20052;-55
2022/07/01 11:40:07;;;;;;;2.67;2.22;;;23.80;97.80;;;;;;5054379;28;20052;-53
2022/07/01 11:42:33;;;;;;;2.25;1.85;;;23.60;98.30;;;;;;5053815;28;20030;-56
2022/07/01 11:44:59;;;;;;;7.15;2.50;;;23.10;98.80;;;;;;5053563;28;20087;-55
2022/07/01 11:47:26;;;;;;;5.97;2.10;;;23.10;99.20;;;;;;5052970;28;20029;-56
2022/07/01 11:49:52;;;;;;;6.20;2.95;;;23.00;99.80;;;;;;5053808;28;20452;-56
2022/07/01 11:52:19;;;;;;;2.90;2.13;;;23.00;99.30;;;;;;5053654;28;20057;-55
2022/07/01 11:54:48;;;;;;;2.72;2.00;;;23.10;99.80;;;;;;5053155;28;20079;-53
2022/07/01 11:57:23;;;;;;;9.55;2.25;;;23.00;99.60;;;;;;5053097;28;20056;-56
2022/07/01 11:59:51;;;;;;;8.45;2.47;;;23.20;99.50;;;;;;5017124;28;20562;-58
2022/07/01 12:02:18;;;;;;;12.50;3.40;;;23.30;99.80;;;;;;5050789;28;20464;-57
2022/07/01 12:04:45;;;;;;;7.68;2.63;;;23.50;99.20;;;;;;5052941;28;20112;-58
2022/07/01 12:07:13;;;;;;;7.72;2.17;;;23.50;99.50;;;;;;5053090;28;20033;-57
2022/07/01 12:09:39;;;;;;;2.78;2.00;;;23.30;99.00;;;;;;5053157;28;20025;-56
2022/07/01 12:12:07;;;;;;;3.22;2.08;;;22.90;99.70;;;;;;5054056;28;20032;-58
2022/07/01 12:14:34;;;;;;;2.25;1.70;;;23.00;99.90;;;;;;5052756;28;20341;-56
2022/07/01 12:17:03;;;;;;;2.92;2.17;;;23.10;99.90;;;;;;5053218;28;20029;-55
2022/07/01 12:19:39;;;;;;;2.40;2.03;;;22.90;99.90;;;;;;5052792;28;20120;-53
2022/07/01 12:22:11;;;;;;;4.85;2.20;;;22.80;99.90;;;;;;5053215;28;20029;-55
2022/07/01 12:24:37;;;;;;;3.35;2.00;;;22.50;99.90;;;;;;5052935;28;20108;-53
2022/07/01 12:27:05;;;;;;;6.00;2.10;;;22.60;99.90;;;;;;5052487;28;20563;-58
2022/07/01 12:29:50;;;;;;;6.20;2.22;;;22.40;99.90;;;;;;5053197;28;20484;-57
2022/07/01 12:32:22;;;;;;;10.00;2.95;;;22.40;99.90;;;;;;5052683;28;20052;-54
2022/07/01 12:34:51;;;;;;;5.22;2.45;;;22.30;99.90;;;;;;5052873;28;20109;-55
2022/07/01 12:37:19;;;;;;;5.30;2.28;;;22.10;99.90;;;;;;5052533;28;20477;-55
2022/07/01 12:39:47;;;;;;;3.45;2.15;;;21.90;99.90;;;;;;5052745;28;20079;-54
2022/07/01 12:42:45;;;;;;;5.22;2.92;;;21.90;99.90;;;;;;5052565;28;20021;-56
2022/07/01 12:45:13;;;;;;;2.35;1.73;;;21.30;99.90;;;;;;5018617;28;20035;-56
2022/07/01 12:47:50;;;;;;;1.90;1.60;;;20.90;99.90;;;;;;5053355;28;20025;-52
2022/07/01 12:50:27;;;;;;;4.05;2.28;;;20.20;99.90;;;;;;5052630;28;20388;-52
2022/07/01 12:53:06;;;;;;;3.65;2.20;;;19.50;99.90;;;;;;5052476;28;20075;-55
2022/07/01 12:55:43;;;;;;;2.53;2.30;;;19.10;99.90;;;;;;5052105;28;20497;-53
2022/07/01 12:58:14;;;;;;;2.88;2.60;;;18.80;99.90;;;;;;5052113;28;20054;-55
2022/07/01 13:00:42;;;;;;;3.45;2.25;;;18.70;99.90;;;;;;5052240;28;20033;-53
2022/07/01 13:03:08;;;;;;;4.55;2.35;;;18.40;99.90;;;;;;5047735;28;20109;-53
2022/07/01 13:05:36;;;;;;;2.50;2.30;;;18.10;99.90;;;;;;5032407;28;20029;-52